Station Historical Data
Daily Summary for January 7, 2018 Units:  Metric    English   Both
« Previous Day
Next Day »
Daily Weekly Monthly Yearly Custom
  High: Low: Average:
Temperature: -2.6 °C -20.4 °C -12.2 °C
Dew Point: -9.6 °C -23.5 °C -17.7 °C
Humidity: 81% 48% 65%
Wind Speed: 20.9km/h 0km/h 7.2km/h
Wind Gust: 33.8km/h - -
Wind- - SSW
Pressure: 1036.5 hPa 1018.8 hPa -
Precipitation: 0 mm    
Historical Graphs
 
 
Tabular Data for January 7, 2018
Time Temperature Dew Point Pressure Wind Wind Speed Wind Gust Humidity Rainfall Rate (Hourly)
00:04 -16.7 °C -20.4 °C 1036.5 hPa West 4.8 km/h 11.3 km/h 73% 0 mm
00:09 -16.7 °C -20.4 °C 1036.5 hPa WSW 4.8 km/h 11.3 km/h 73% 0 mm
00:14 -16.7 °C -20.4 °C 1036.5 hPa WSW 4.8 km/h 12.9 km/h 73% 0 mm
00:19 -16.7 °C -20.4 °C 1036.5 hPa WSW 3.2 km/h 12.9 km/h 73% 0 mm
00:24 -16.7 °C -20.4 °C 1036.5 hPa WSW 4.8 km/h 16.1 km/h 73% 0 mm
00:29 -16.7 °C -20.4 °C 1036.5 hPa West 1.6 km/h 9.7 km/h 73% 0 mm
00:34 -16.8 °C -20.5 °C 1036.5 hPa West 3.2 km/h 9.7 km/h 73% 0 mm
00:44 -16.9 °C -20.6 °C 1036.5 hPa WSW 3.2 km/h 9.7 km/h 73% 0 mm
00:49 -16.9 °C -20.7 °C 1036.5 hPa WSW 3.2 km/h 8 km/h 73% 0 mm
00:54 -16.9 °C -20.7 °C 1036.1 hPa WSW 3.2 km/h 8 km/h 73% 0 mm
00:59 -17 °C -20.7 °C 1036.1 hPa West 3.2 km/h 8 km/h 73% 0 mm
01:05 -17 °C -20.7 °C 1036.1 hPa West 3.2 km/h 6.4 km/h 73% 0 mm
01:10 -17.1 °C -20.7 °C 1036.5 hPa WSW 3.2 km/h 6.4 km/h 73% 0 mm
01:20 -17 °C -20.7 °C 1036.5 hPa WSW 3.2 km/h 6.4 km/h 73% 0 mm
01:25 -17 °C -20.7 °C 1036.5 hPa WSW 6.4 km/h 8 km/h 73% 0 mm
01:30 -17 °C -20.7 °C 1036.5 hPa WSW 3.2 km/h 8 km/h 73% 0 mm
01:35 -16.9 °C -20.5 °C 1036.1 hPa WSW 3.2 km/h 6.4 km/h 74% 0 mm
01:40 -16.9 °C -20.5 °C 1036.1 hPa WSW 1.6 km/h 4.8 km/h 74% 0 mm
01:45 -16.9 °C -20.5 °C 1036.1 hPa WSW 1.6 km/h 4.8 km/h 74% 0 mm
01:50 -16.9 °C -20.5 °C 1036.1 hPa WSW 3.2 km/h 4.8 km/h 74% 0 mm
01:55 -16.9 °C -20.4 °C 1036.1 hPa WSW 1.6 km/h 4.8 km/h 74% 0 mm
02:00 -16.9 °C -20.5 °C 1036.1 hPa SSE 3.2 km/h 6.4 km/h 74% 0 mm
02:05 -17 °C -20.6 °C 1036.1 hPa SSE 1.6 km/h 6.4 km/h 74% 0 mm
02:10 -17 °C -20.6 °C 1036.1 hPa South 4.8 km/h 6.4 km/h 74% 0 mm
02:15 -17.1 °C -20.7 °C 1036.1 hPa South 3.2 km/h 8 km/h 74% 0 mm
02:20 -17.2 °C -20.8 °C 1036.1 hPa South 3.2 km/h 8 km/h 74% 0 mm
02:25 -17.3 °C -20.8 °C 1035.8 hPa South 1.6 km/h 6.4 km/h 74% 0 mm
02:30 -17.4 °C -20.9 °C 1036.1 hPa South 1.6 km/h 6.4 km/h 74% 0 mm
02:35 -17.6 °C -21.1 °C 1035.8 hPa South 3.2 km/h 6.4 km/h 74% 0 mm
02:45 -17.8 °C -21.3 °C 1036.1 hPa South 3.2 km/h 4.8 km/h 74% 0 mm
02:50 -17.9 °C -21.4 °C 1035.8 hPa South 1.6 km/h 4.8 km/h 74% 0 mm
02:55 -18.1 °C -21.6 °C 1035.8 hPa Calm     74% 0 mm
03:00 -18.2 °C -21.7 °C 1035.8 hPa Calm     74% 0 mm
03:05 -18.3 °C -21.8 °C 1035.8 hPa Calm     74% 0 mm
03:10 -18.3 °C -21.8 °C 1035.8 hPa Calm     74% 0 mm
03:15 -18.4 °C -21.9 °C 1035.8 hPa Calm     74% 0 mm
03:25 -18.7 °C -22.2 °C 1035.4 hPa Calm     74% 0 mm
03:30 -18.8 °C -22.3 °C 1035.4 hPa Calm     74% 0 mm
03:35 -18.9 °C -22.4 °C 1035.4 hPa Calm     74% 0 mm
03:40 -19.1 °C -22.6 °C 1035.4 hPa Calm     74% 0 mm
03:45 -19.3 °C -22.7 °C 1035.4 hPa Calm     74% 0 mm
03:50 -19.4 °C -23 °C 1035.1 hPa Calm     73% 0 mm
03:55 -19.5 °C -22.9 °C 1035.1 hPa Calm     74% 0 mm
04:00 -19.6 °C -23.1 °C 1035.1 hPa Calm   3.2 km/h 74% 0 mm
04:05 -19.8 °C -23.2 °C 1035.1 hPa Calm   3.2 km/h 74% 0 mm
04:10 -19.9 °C -23.3 °C 1035.4 hPa Calm   3.2 km/h 74% 0 mm
04:15 -19.9 °C -23.4 °C 1035.4 hPa South 1.6 km/h 4.8 km/h 74% 0 mm
04:20 -20.1 °C -23.5 °C 1035.4 hPa South 1.6 km/h 4.8 km/h 74% 0 mm
04:25 -20.1 °C -23.3 °C 1035.4 hPa South 1.6 km/h 8 km/h 75% 0 mm
04:30 -20.1 °C -23.3 °C 1035.4 hPa South 3.2 km/h 8 km/h 75% 0 mm
04:35 -20.1 °C -23.3 °C 1035.4 hPa South 3.2 km/h 6.4 km/h 75% 0 mm
04:40 -20.1 °C -23.3 °C 1035.4 hPa South 3.2 km/h 6.4 km/h 76% 0 mm
04:45 -20.1 °C -23.3 °C 1035.1 hPa South 3.2 km/h 6.4 km/h 76% 0 mm
04:50 -20.2 °C -23.3 °C 1035.1 hPa South 3.2 km/h 6.4 km/h 76% 0 mm
04:55 -20.2 °C -23.3 °C 1035.4 hPa SSE 1.6 km/h 4.8 km/h 76% 0 mm
05:05 -20.3 °C -23.4 °C 1035.4 hPa South 1.6 km/h 4.8 km/h 76% 0 mm
05:10 -20.3 °C -23.4 °C 1035.4 hPa South 1.6 km/h 4.8 km/h 76% 0 mm
05:15 -20.4 °C -23.4 °C 1035.4 hPa South 1.6 km/h 4.8 km/h 77% 0 mm
05:20 -20.4 °C -23.4 °C 1035.4 hPa South 1.6 km/h 4.8 km/h 77% 0 mm
05:25 -20.4 °C -23.4 °C 1035.4 hPa South 1.6 km/h 3.2 km/h 77% 0 mm
05:30 -20.3 °C -23.3 °C 1035.4 hPa Calm   3.2 km/h 77% 0 mm
05:35 -20.3 °C -23.3 °C 1035.4 hPa Calm   3.2 km/h 77% 0 mm
05:40 -20.2 °C -23.1 °C 1035.4 hPa Calm   3.2 km/h 78% 0 mm
05:45 -20.1 °C -22.9 °C 1035.4 hPa Calm     78% 0 mm
05:50 -19.9 °C -22.8 °C 1035.4 hPa Calm     78% 0 mm
06:05 -19.6 °C -22.3 °C 1035.4 hPa Calm     79% 0 mm
06:10 -19.5 °C -22.2 °C 1035.4 hPa Calm     79% 0 mm
06:15 -19.3 °C -22.1 °C 1035.4 hPa Calm   4.8 km/h 79% 0 mm
06:20 -19.2 °C -21.9 °C 1035.4 hPa SE 1.6 km/h 4.8 km/h 79% 0 mm
06:25 -19.1 °C -21.8 °C 1035.4 hPa SE 1.6 km/h 4.8 km/h 79% 0 mm
06:35 -18.9 °C -21.6 °C 1035.4 hPa Calm   1.6 km/h 79% 0 mm
06:40 -18.8 °C -21.4 °C 1035.1 hPa Calm   1.6 km/h 80% 0 mm
06:45 -18.7 °C -21.3 °C 1035.1 hPa Calm   3.2 km/h 80% 0 mm
07:00 -18.4 °C -21 °C 1035.1 hPa Calm     80% 0 mm
07:10 -18.2 °C -20.8 °C 1034.8 hPa ESE 1.6 km/h 6.4 km/h 80% 0 mm
07:15 -18.1 °C -20.7 °C 1034.8 hPa ESE 1.6 km/h 6.4 km/h 80% 0 mm
07:20 -17.9 °C -20.4 °C 1034.8 hPa SE 3.2 km/h 4.8 km/h 81% 0 mm
07:25 -17.7 °C -20.2 °C 1034.8 hPa SE 3.2 km/h 6.4 km/h 81% 0 mm
07:30 -17.5 °C -20 °C 1034.4 hPa SSE 1.6 km/h 3.2 km/h 81% 0 mm
07:35 -17.3 °C -19.8 °C 1034.4 hPa SSE 1.6 km/h 8 km/h 81% 0 mm
07:40 -17.1 °C -19.6 °C 1034.4 hPa South 3.2 km/h 8 km/h 81% 0 mm
07:45 -16.9 °C -19.4 °C 1034.4 hPa South 3.2 km/h 6.4 km/h 81% 0 mm
07:50 -16.7 °C -19.2 °C 1034.4 hPa South 3.2 km/h 6.4 km/h 81% 0 mm
07:55 -16.6 °C -19.1 °C 1034.4 hPa South 3.2 km/h 8 km/h 81% 0 mm
08:00 -16.4 °C -18.9 °C 1034.4 hPa South 3.2 km/h 8 km/h 81% 0 mm
08:05 -16.3 °C -18.8 °C 1034.4 hPa South 3.2 km/h 4.8 km/h 81% 0 mm
08:15 -16 °C -18.5 °C 1034.4 hPa SSW 8 km/h 14.5 km/h 81% 0 mm
08:20 -15.7 °C -18.2 °C 1034.4 hPa SSW 6.4 km/h 16.1 km/h 81% 0 mm
08:25 -15.3 °C -17.8 °C 1034.4 hPa SSW 8 km/h 16.1 km/h 81% 0 mm
08:30 -15 °C -17.6 °C 1034.4 hPa SSW 8 km/h 14.5 km/h 81% 0 mm
08:35 -14.7 °C -17.4 °C 1034.4 hPa SSW 8 km/h 17.7 km/h 80% 0 mm
08:40 -14.6 °C -17.4 °C 1034.1 hPa SSW 9.7 km/h 20.9 km/h 79% 0 mm
08:45 -14.4 °C -17.3 °C 1034.1 hPa South 3.2 km/h 14.5 km/h 79% 0 mm
08:50 -14.4 °C -17.4 °C 1034.1 hPa South 16.1 km/h 19.3 km/h 78% 0 mm
08:55 -14.4 °C -17.6 °C 1034.1 hPa SSW 8 km/h 22.5 km/h 77% 0 mm
09:00 -14.3 °C -17.6 °C 1034.1 hPa SSW 9.7 km/h 22.5 km/h 76% 0 mm
09:05 -14.2 °C -17.6 °C 1034.1 hPa SW 14.5 km/h 19.3 km/h 76% 0 mm
09:10 -14.1 °C -17.6 °C 1034.1 hPa SSE 9.7 km/h 19.3 km/h 75% 0 mm
09:20 -13.9 °C -17.7 °C 1033.7 hPa SSW 14.5 km/h 19.3 km/h 73% 0 mm
09:25 -13.8 °C -17.8 °C 1033.7 hPa SSW 11.3 km/h 19.3 km/h 72% 0 mm
09:30 -13.6 °C -17.9 °C 1033.7 hPa SSW 11.3 km/h 20.9 km/h 70% 0 mm
09:35 -13.3 °C -17.7 °C 1033.4 hPa SW 9.7 km/h 16.1 km/h 70% 0 mm
09:45 -13.1 °C -17.7 °C 1033.4 hPa SSW 6.4 km/h 14.5 km/h 68% 0 mm
09:50 -12.9 °C -17.8 °C 1033.4 hPa SSW 8 km/h 16.1 km/h 67% 0 mm
09:55 -12.9 °C -17.9 °C 1033.4 hPa SSW 8 km/h 17.7 km/h 66% 0 mm
10:00 -12.8 °C -18 °C 1033.4 hPa SSW 8 km/h 17.7 km/h 65% 0 mm
10:05 -12.5 °C -17.9 °C 1033.4 hPa South 9.7 km/h 16.1 km/h 64% 0 mm
10:10 -12.3 °C -17.9 °C 1033.4 hPa SSW 8 km/h 20.9 km/h 63% 0 mm
10:14 -12.4 °C -18.1 °C 1033.4 hPa South 12.9 km/h 20.9 km/h 63% 0 mm
10:20 -12.6 °C -18.6 °C 1033.4 hPa SW 16.1 km/h 20.9 km/h 61% 0 mm
10:25 -12.6 °C -18.6 °C 1033.4 hPa SSW 8 km/h 24.1 km/h 61% 0 mm
10:30 -12.4 °C -18.2 °C 1033.1 hPa South 8 km/h 12.9 km/h 62% 0 mm
10:35 -12.3 °C -18.3 °C 1032.7 hPa SW 9.7 km/h 20.9 km/h 61% 0 mm
10:40 -12.3 °C -18.4 °C 1032.7 hPa SSW 9.7 km/h 17.7 km/h 60% 0 mm
10:45 -12.2 °C -18.4 °C 1032.7 hPa SSE 11.3 km/h 20.9 km/h 60% 0 mm
10:55 -12.2 °C -18.6 °C 1032.4 hPa SSW 11.3 km/h 20.9 km/h 59% 0 mm
11:00 -12 °C -18.2 °C 1032.1 hPa SSW 11.3 km/h 22.5 km/h 60% 0 mm
11:05 -11.9 °C -18.3 °C 1032.1 hPa SSW 9.7 km/h 22.5 km/h 59% 0 mm
11:10 -11.9 °C -18.3 °C 1032.1 hPa SSW 12.9 km/h 24.1 km/h 59% 0 mm
11:20 -11.4 °C -18 °C 1031.7 hPa SSW 11.3 km/h 22.5 km/h 58% 0 mm
11:25 -11.3 °C -18.2 °C 1031.4 hPa SSW 11.3 km/h 25.7 km/h 57% 0 mm
11:30 -11.3 °C -18.2 °C 1031.4 hPa SSW 11.3 km/h 25.7 km/h 57% 0 mm
11:35 -11.1 °C -17.9 °C 1031 hPa SSW 9.7 km/h 24.1 km/h 57% 0 mm
11:45 -10.9 °C -17.9 °C 1030.7 hPa SSW 11.3 km/h 24.1 km/h 56% 0 mm
11:50 -10.6 °C -17.7 °C 1030.7 hPa SSW 9.7 km/h 24.1 km/h 56% 0 mm
11:55 -10.4 °C -17.6 °C 1030.7 hPa SSW 9.7 km/h 24.1 km/h 56% 0 mm
12:00 -10.3 °C -17.6 °C 1030.7 hPa SSW 11.3 km/h 24.1 km/h 55% 0 mm
12:05 -10.2 °C -17.7 °C 1030.4 hPa SSW 9.7 km/h 24.1 km/h 54% 0 mm
12:15 -10.3 °C -17.9 °C 1030.4 hPa SW 20.9 km/h 22.5 km/h 54% 0 mm
12:20 -10.3 °C -17.7 °C 1030 hPa SSW 12.9 km/h 24.1 km/h 55% 0 mm
12:30 -10.2 °C -17.7 °C 1029.7 hPa SSW 11.3 km/h 27.4 km/h 54% 0 mm
12:35 -9.8 °C -17 °C 1029.7 hPa South 4.8 km/h 17.7 km/h 56% 0 mm
12:40 -9.8 °C -17.1 °C 1029.3 hPa WSW 8 km/h 19.3 km/h 55% 0 mm
12:45 -9.9 °C -17.4 °C 1029.3 hPa SSW 9.7 km/h 20.9 km/h 54% 0 mm
12:50 -9.9 °C -17 °C 1029 hPa SW 6.4 km/h 19.3 km/h 56% 0 mm
12:55 -9.9 °C -17.2 °C 1028.7 hPa SSW 9.7 km/h 19.3 km/h 55% 0 mm
13:00 -9.8 °C -17 °C 1028.3 hPa SSW 11.3 km/h 22.5 km/h 56% 0 mm
13:05 -9.8 °C -17.4 °C 1028 hPa SSW 11.3 km/h 22.5 km/h 54% 0 mm
13:10 -9.8 °C -17.2 °C 1027.7 hPa SSW 9.7 km/h 22.5 km/h 55% 0 mm
13:15 -9.9 °C -17.4 °C 1027.7 hPa SSW 9.7 km/h 22.5 km/h 54% 0 mm
13:20 -9.8 °C -17.4 °C 1027.7 hPa SSW 11.3 km/h 22.5 km/h 54% 0 mm
13:25 -9.8 °C -17.3 °C 1027.7 hPa SSW 11.3 km/h 27.4 km/h 54% 0 mm
13:30 -9.7 °C -17.3 °C 1027.3 hPa South 4.8 km/h 17.7 km/h 54% 0 mm
13:35 -9.6 °C -17 °C 1027.3 hPa SSW 9.7 km/h 19.3 km/h 55% 0 mm
13:40 -9.6 °C -17.4 °C 1027.3 hPa SW 9.7 km/h 22.5 km/h 53% 0 mm
13:45 -9.6 °C -17.2 °C 1027.3 hPa SW 11.3 km/h 25.7 km/h 54% 0 mm
13:50 -9.5 °C -17.3 °C 1027.3 hPa SSW 11.3 km/h 25.7 km/h 53% 0 mm
13:55 -9.4 °C -17 °C 1027 hPa SW 8 km/h 16.1 km/h 54% 0 mm
14:00 -9.3 °C -16.9 °C 1027 hPa SSW 9.7 km/h 19.3 km/h 54% 0 mm
14:05 -9.3 °C -16.9 °C 1026.6 hPa SSW 9.7 km/h 20.9 km/h 54% 0 mm
14:15 -9.2 °C -17.1 °C 1026.3 hPa SSW 11.3 km/h 25.7 km/h 53% 0 mm
14:20 -9.2 °C -16.8 °C 1026.3 hPa SW 6.4 km/h 17.7 km/h 54% 0 mm
14:25 -9.2 °C -16.8 °C 1026 hPa SSW 6.4 km/h 22.5 km/h 54% 0 mm
14:30 -9 °C -16.4 °C 1026 hPa SSW 9.7 km/h 22.5 km/h 55% 0 mm
14:35 -8.8 °C -16.4 °C 1025.6 hPa SSW 8 km/h 24.1 km/h 54% 0 mm
14:40 -8.7 °C -16.6 °C 1025.6 hPa SSW 9.7 km/h 24.1 km/h 53% 0 mm
14:45 -8.6 °C -16.5 °C 1025.6 hPa SSW 9.7 km/h 22.5 km/h 53% 0 mm
14:50 -8.4 °C -16.3 °C 1025.6 hPa SSW 9.7 km/h 19.3 km/h 53% 0 mm
14:55 -8.3 °C -16.4 °C 1025.3 hPa SSW 8 km/h 20.9 km/h 52% 0 mm
15:00 -8.3 °C -16.2 °C 1025.3 hPa SW 11.3 km/h 20.9 km/h 53% 0 mm
15:05 -8.2 °C -16.3 °C 1024.9 hPa SSW 8 km/h 22.5 km/h 52% 0 mm
15:10 -8.1 °C -16 °C 1024.9 hPa SSW 11.3 km/h 22.5 km/h 53% 0 mm
15:15 -8 °C -15.9 °C 1024.6 hPa South 4.8 km/h 20.9 km/h 53% 0 mm
15:20 -7.9 °C -16.1 °C 1024.6 hPa SSW 9.7 km/h 22.5 km/h 52% 0 mm
15:25 -7.8 °C -16.2 °C 1024.6 hPa SSW 11.3 km/h 22.5 km/h 51% 0 mm
15:30 -7.7 °C -16.1 °C 1024.3 hPa SSW 11.3 km/h 27.4 km/h 51% 0 mm
15:35 -7.6 °C -16 °C 1024.3 hPa SW 11.3 km/h 22.5 km/h 51% 0 mm
15:40 -7.4 °C -16.1 °C 1023.9 hPa SSE 12.9 km/h 27.4 km/h 50% 0 mm
15:50 -7.2 °C -15.7 °C 1023.9 hPa WSW 12.9 km/h 19.3 km/h 51% 0 mm
15:55 -7.1 °C -15.7 °C 1023.9 hPa SSW 11.3 km/h 20.9 km/h 50% 0 mm
16:00 -6.9 °C -15.9 °C 1023.9 hPa SSW 11.3 km/h 20.9 km/h 49% 0 mm
16:05 -6.8 °C -15.6 °C 1023.9 hPa SW 12.9 km/h 17.7 km/h 50% 0 mm
16:10 -6.7 °C -15.7 °C 1023.9 hPa SSW 12.9 km/h 22.5 km/h 49% 0 mm
16:15 -6.7 °C -15.6 °C 1023.6 hPa SSW 8 km/h 17.7 km/h 49% 0 mm
16:20 -6.6 °C -15.6 °C 1023.6 hPa SSW 9.7 km/h 24.1 km/h 49% 0 mm
16:30 -6.3 °C -15.3 °C 1023.2 hPa SSW 11.3 km/h 24.1 km/h 49% 0 mm
16:39 -6.3 °C -15.3 °C 1022.9 hPa SSE 8 km/h 24.1 km/h 49% 0 mm
16:45 -6.2 °C -15.2 °C 1022.9 hPa SSW 11.3 km/h 24.1 km/h 49% 0 mm
16:54 -6.2 °C -14.9 °C 1022.9 hPa SSW 12.9 km/h 16.1 km/h 50% 0 mm
16:59 -6.2 °C -15.2 °C 1022.9 hPa SSW 9.7 km/h 19.3 km/h 49% 0 mm
17:05 -6.1 °C -15.3 °C 1022.9 hPa SSW 11.3 km/h 25.7 km/h 48% 0 mm
17:15 -6.1 °C -15.1 °C 1022.6 hPa SSW 12.9 km/h 29 km/h 49% 0 mm
17:20 -6.1 °C -15.1 °C 1022.6 hPa SSW 11.3 km/h 22.5 km/h 49% 0 mm
17:30 -6 °C -14.8 °C 1022.6 hPa SSW 11.3 km/h 24.1 km/h 50% 0 mm
17:35 -6 °C -14.8 °C 1022.6 hPa SSW 12.9 km/h 29 km/h 50% 0 mm
17:40 -5.9 °C -14.7 °C 1022.2 hPa SSW 12.9 km/h 29 km/h 50% 0 mm
17:50 -5.9 °C -14.7 °C 1022.2 hPa SSW 12.9 km/h 29 km/h 50% 0 mm
17:59 -5.9 °C -14.2 °C 1022.2 hPa SW 9.7 km/h 24.1 km/h 52% 0 mm
18:04 -5.8 °C -13.9 °C 1021.9 hPa SSW 12.9 km/h 27.4 km/h 53% 0 mm
18:10 -5.8 °C -13.9 °C 1021.9 hPa SSW 12.9 km/h 27.4 km/h 53% 0 mm
18:15 -5.8 °C -13.6 °C 1021.6 hPa South 8 km/h 25.7 km/h 54% 0 mm
18:20 -5.7 °C -13.3 °C 1021.6 hPa SSW 11.3 km/h 25.7 km/h 55% 0 mm
18:25 -5.7 °C -13.1 °C 1021.6 hPa SSW 11.3 km/h 27.4 km/h 56% 0 mm
18:30 -5.6 °C -13 °C 1021.6 hPa SSW 11.3 km/h 27.4 km/h 56% 0 mm
18:35 -5.6 °C -12.9 °C 1021.6 hPa SSW 9.7 km/h 29 km/h 56% 0 mm
18:40 -5.4 °C -12.8 °C 1021.6 hPa SW 11.3 km/h 22.5 km/h 56% 0 mm
18:45 -5.4 °C -12.8 °C 1021.6 hPa SSW 11.3 km/h 32.2 km/h 56% 0 mm
18:49 -5.3 °C -12.6 °C 1021.6 hPa SSW 11.3 km/h 32.2 km/h 57% 0 mm
18:54 -5.3 °C -12.5 °C 1021.6 hPa South 9.7 km/h 20.9 km/h 57% 0 mm
19:05 -5.2 °C -11.9 °C 1021.6 hPa WSW 9.7 km/h 19.3 km/h 59% 0 mm
19:09 -5.1 °C -11.9 °C 1021.6 hPa SW 11.3 km/h 29 km/h 59% 0 mm
19:14 -5.1 °C -11.6 °C 1021.2 hPa SSW 11.3 km/h 29 km/h 60% 0 mm
19:25 -4.9 °C -11.1 °C 1020.9 hPa SSW 11.3 km/h 25.7 km/h 62% 0 mm
19:30 -4.9 °C -11.1 °C 1020.9 hPa SSW 11.3 km/h 22.5 km/h 62% 0 mm
19:34 -4.9 °C -10.8 °C 1020.9 hPa South 12.9 km/h 20.9 km/h 63% 0 mm
19:40 -4.8 °C -10.8 °C 1020.5 hPa SSW 9.7 km/h 20.9 km/h 63% 0 mm
19:45 -4.7 °C -10.5 °C 1020.5 hPa SW 12.9 km/h 17.7 km/h 64% 0 mm
19:55 -4.6 °C -10.3 °C 1020.2 hPa SW 9.7 km/h 24.1 km/h 64% 0 mm
20:00 -4.5 °C -10.3 °C 1020.2 hPa SSW 9.7 km/h 24.1 km/h 64% 0 mm
20:04 -4.4 °C -10.2 °C 1020.2 hPa SSW 6.4 km/h 25.7 km/h 64% 0 mm
20:09 -4.4 °C -10 °C 1019.9 hPa SW 9.7 km/h 24.1 km/h 65% 0 mm
20:20 -4.2 °C -9.8 °C 1019.9 hPa SSW 11.3 km/h 20.9 km/h 65% 0 mm
20:25 -4.1 °C -9.7 °C 1019.9 hPa South 17.7 km/h 20.9 km/h 65% 0 mm
20:30 -4 °C -9.6 °C 1019.9 hPa SSW 11.3 km/h 22.5 km/h 65% 0 mm
20:40 -3.8 °C -9.8 °C 1019.5 hPa SSW 11.3 km/h 29 km/h 63% 0 mm
20:45 -3.8 °C -9.8 °C 1019.5 hPa SW 12.9 km/h 24.1 km/h 63% 0 mm
20:50 -3.7 °C -9.7 °C 1019.5 hPa SSW 9.7 km/h 24.1 km/h 63% 0 mm
20:54 -3.7 °C -9.9 °C 1019.2 hPa SSW 9.7 km/h 33.8 km/h 62% 0 mm
21:00 -3.6 °C -9.8 °C 1019.2 hPa SSW 11.3 km/h 33.8 km/h 62% 0 mm
21:05 -3.6 °C -10 °C 1019.2 hPa SW 19.3 km/h 22.5 km/h 61% 0 mm
21:10 -3.5 °C -9.9 °C 1018.8 hPa SSW 11.3 km/h 27.4 km/h 61% 0 mm
21:25 -3.4 °C -9.8 °C 1018.8 hPa SW 9.7 km/h 20.9 km/h 61% 0 mm
21:30 -3.3 °C -10 °C 1018.8 hPa South 12.9 km/h 24.1 km/h 60% 0 mm
21:50 -3.1 °C -10 °C 1018.8 hPa SSW 11.3 km/h 24.1 km/h 59% 0 mm
22:10 -3.1 °C -9.9 °C 1018.8 hPa WSW 8 km/h 25.7 km/h 59% 0 mm
22:20 -3 °C -10.1 °C 1018.8 hPa WSW 16.1 km/h 30.6 km/h 58% 0 mm
22:50 -2.6 °C -9.9 °C 1018.8 hPa SSW 11.3 km/h 29 km/h 57% 0 mm
22:55 -2.6 °C -9.9 °C 1018.8 hPa SW 11.3 km/h 27.4 km/h 57% 0 mm
Buffalo, New York, USA
Compliments of Weather Underground - 2 mb